createdAt,value
2019-03-12T00:01:34.801Z,2.10
2019-03-12T00:04:06.026Z,2.03
2019-03-12T00:06:37.298Z,2.30
2019-03-12T00:09:08.520Z,2.20
2019-03-12T00:11:40.209Z,1.80
2019-03-12T00:14:11.472Z,1.87
2019-03-12T00:16:42.693Z,1.73
2019-03-12T00:19:13.911Z,2.23
2019-03-12T00:21:45.284Z,2.00
2019-03-12T00:24:16.502Z,2.20
2019-03-12T00:26:47.788Z,2.40
2019-03-12T00:29:19.054Z,2.53
2019-03-12T00:31:50.270Z,2.43
2019-03-12T00:34:21.559Z,2.20
2019-03-12T00:36:52.917Z,2.20
2019-03-12T00:39:24.132Z,2.27
2019-03-12T00:41:55.462Z,2.20
2019-03-12T00:44:27.737Z,2.00
2019-03-12T00:46:58.997Z,1.87
2019-03-12T00:49:30.242Z,2.50
2019-03-12T00:52:01.507Z,2.30
2019-03-12T00:54:32.727Z,2.50
2019-03-12T00:57:04.065Z,2.07
2019-03-12T00:59:35.269Z,2.80
2019-03-12T01:02:06.788Z,2.77
2019-03-12T01:04:38.001Z,2.53
2019-03-12T01:07:10.753Z,2.57
2019-03-12T01:09:41.982Z,2.33
2019-03-12T01:12:13.237Z,2.60
2019-03-12T01:14:44.494Z,2.23
2019-03-12T01:17:15.744Z,2.30
2019-03-12T01:19:47.011Z,2.50
2019-03-12T01:22:18.287Z,2.70
2019-03-12T01:24:49.811Z,2.50
2019-03-12T01:27:21.046Z,2.67
2019-03-12T01:29:52.309Z,2.30
2019-03-12T01:32:23.539Z,2.77
2019-03-12T01:34:54.760Z,2.97
2019-03-12T01:37:27.083Z,2.07
2019-03-12T01:39:58.379Z,2.60
2019-03-12T01:42:29.704Z,2.90
2019-03-12T01:45:00.929Z,2.80
2019-03-12T01:47:32.260Z,2.30
2019-03-12T01:50:18.663Z,2.63
2019-03-12T01:52:51.532Z,2.50
2019-03-12T01:55:22.747Z,2.50
2019-03-12T01:57:54.020Z,2.03
2019-03-12T02:00:25.243Z,2.60
2019-03-12T02:02:56.503Z,3.03
2019-03-12T02:05:27.880Z,3.00
2019-03-12T02:07:59.239Z,2.50
2019-03-12T02:10:30.538Z,2.57
2019-03-12T02:13:01.868Z,2.77
2019-03-12T02:15:34.209Z,2.57
2019-03-12T02:18:05.665Z,2.60
2019-03-12T02:20:37.066Z,2.70
2019-03-12T02:23:08.440Z,3.00
2019-03-12T02:25:39.795Z,3.33
2019-03-12T02:28:11.025Z,2.63
2019-03-12T02:30:42.382Z,3.00
2019-03-12T02:33:13.789Z,3.20
2019-03-12T02:35:45.059Z,2.97
2019-03-12T02:38:16.396Z,2.87
2019-03-12T02:40:47.693Z,2.50
2019-03-12T02:43:18.967Z,2.50
2019-03-12T02:45:50.214Z,2.93
2019-03-12T02:48:21.552Z,2.70
2019-03-12T02:50:52.788Z,2.90
2019-03-12T02:53:24.257Z,3.70
2019-03-12T02:55:55.530Z,3.00
2019-03-12T02:58:26.870Z,3.00
2019-03-12T03:00:58.101Z,3.17
2019-03-12T03:03:29.380Z,2.57
2019-03-12T03:06:02.242Z,2.77
2019-03-12T03:08:35.262Z,2.90
2019-03-12T03:11:06.486Z,2.70
2019-03-12T03:13:38.083Z,3.30
2019-03-12T03:16:09.522Z,2.50
2019-03-12T03:18:40.876Z,2.80
2019-03-12T03:21:12.273Z,2.90
2019-03-12T03:23:43.548Z,2.53
2019-03-12T03:26:14.769Z,2.70
2019-03-12T03:28:46.115Z,2.80
2019-03-12T03:31:17.564Z,2.67
2019-03-12T03:33:59.005Z,2.90
2019-03-12T03:36:30.351Z,2.50
2019-03-12T03:39:02.517Z,2.20
2019-03-12T03:41:35.485Z,3.00
2019-03-12T03:44:08.746Z,2.40
2019-03-12T03:46:39.991Z,2.67
2019-03-12T03:49:12.808Z,2.60
2019-03-12T03:51:44.031Z,2.47
2019-03-12T03:54:15.461Z,2.57
2019-03-12T03:56:46.699Z,2.70
2019-03-12T03:59:18.300Z,3.37
2019-03-12T04:01:49.846Z,2.67
2019-03-12T04:04:21.958Z,3.23
2019-03-12T04:06:53.255Z,3.00
2019-03-12T04:09:24.520Z,2.93
2019-03-12T04:11:55.811Z,2.67
2019-03-12T04:14:27.081Z,2.70
2019-03-12T04:16:58.376Z,3.17
2019-03-12T04:19:29.727Z,3.30
2019-03-12T04:22:02.052Z,3.00
2019-03-12T04:24:33.521Z,2.77
2019-03-12T04:27:04.803Z,2.70
2019-03-12T04:29:36.213Z,2.80
2019-03-12T04:32:07.503Z,3.17
2019-03-12T04:34:38.905Z,2.77
2019-03-12T04:37:10.236Z,2.43
2019-03-12T04:39:42.697Z,2.33
2019-03-12T04:42:13.994Z,2.90
2019-03-12T04:44:45.277Z,3.10
2019-03-12T04:47:16.514Z,2.70
2019-03-12T04:49:48.098Z,2.80
2019-03-12T04:52:19.324Z,2.77
2019-03-12T04:54:50.611Z,2.57
2019-03-12T04:57:21.914Z,2.73
2019-03-12T04:59:53.265Z,2.70
2019-03-12T05:02:24.562Z,2.77
2019-03-12T05:04:55.842Z,2.43
2019-03-12T05:07:27.095Z,2.93
2019-03-12T05:09:59.263Z,3.00
2019-03-12T05:12:30.801Z,2.70
2019-03-12T05:15:02.162Z,2.70
2019-03-12T05:17:35.173Z,3.00
2019-03-12T05:20:13.281Z,2.70
2019-03-12T05:22:44.863Z,2.80
2019-03-12T05:27:47.092Z,2.70
2019-03-12T05:30:21.465Z,2.73
2019-03-12T05:32:52.796Z,2.60
2019-03-12T05:35:24.018Z,2.50
2019-03-12T05:37:55.445Z,2.40
2019-03-12T05:40:26.798Z,2.40
2019-03-12T05:42:58.137Z,2.87
2019-03-12T05:45:29.664Z,2.70
2019-03-12T05:48:01.022Z,2.23
2019-03-12T05:50:32.437Z,2.13
2019-03-12T05:53:14.922Z,2.40
2019-03-12T05:55:46.363Z,3.40
2019-03-12T05:58:23.850Z,5.27
2019-03-12T06:00:55.187Z,6.43
2019-03-12T06:03:26.471Z,8.40
2019-03-12T06:05:57.775Z,5.77
2019-03-12T06:08:29.011Z,3.10
2019-03-12T06:11:00.379Z,2.70
2019-03-12T06:13:31.653Z,2.53
2019-03-12T06:16:02.962Z,2.67
2019-03-12T06:18:35.305Z,2.23
2019-03-12T06:21:06.782Z,3.43
2019-03-12T06:23:38.010Z,3.57
2019-03-12T06:26:09.283Z,2.40
2019-03-12T06:28:40.551Z,2.80
2019-03-12T06:31:22.460Z,2.33
2019-03-12T06:34:07.365Z,2.47
2019-03-12T06:36:40.306Z,2.13
2019-03-12T06:39:29.391Z,2.30
2019-03-12T06:42:07.974Z,2.53
2019-03-12T06:44:44.639Z,3.13
2019-03-12T06:47:33.806Z,3.00
2019-03-12T06:50:14.596Z,2.80
2019-03-12T06:53:02.529Z,3.53
2019-03-12T06:55:41.105Z,2.97
2019-03-12T06:58:14.157Z,2.57
2019-03-12T07:01:03.032Z,3.03
2019-03-12T07:03:51.767Z,3.10
2019-03-12T07:06:41.182Z,2.63
2019-03-12T07:09:16.821Z,3.13
2019-03-12T07:12:05.834Z,3.03
2019-03-12T07:14:36.893Z,3.73
2019-03-12T07:17:07.964Z,3.20
2019-03-12T07:19:41.737Z,3.13
2019-03-12T07:22:15.678Z,3.40
2019-03-12T07:25:04.945Z,3.53
2019-03-12T07:27:40.757Z,3.23
2019-03-12T07:30:23.280Z,4.37
2019-03-12T07:33:12.588Z,3.90
2019-03-12T07:35:54.076Z,3.83
2019-03-12T07:38:26.991Z,2.80
2019-03-12T07:41:08.719Z,3.00
2019-03-12T07:43:48.721Z,2.40
2019-03-12T07:46:34.492Z,2.53
2019-03-12T07:49:25.583Z,3.07
2019-03-12T07:52:16.540Z,2.80
2019-03-12T07:54:51.959Z,2.70
2019-03-12T07:57:40.664Z,2.60
2019-03-12T08:00:14.774Z,2.73
2019-03-12T08:02:53.880Z,2.50
2019-03-12T08:05:44.313Z,3.07
2019-03-12T08:08:19.976Z,2.83
2019-03-12T08:10:55.351Z,3.10
2019-03-12T08:13:44.444Z,2.57
2019-03-12T08:16:20.142Z,2.40
2019-03-12T08:18:53.062Z,2.60
2019-03-12T08:21:24.131Z,2.23
2019-03-12T08:23:55.197Z,2.73
2019-03-12T08:26:28.120Z,2.80
2019-03-12T08:28:59.225Z,2.30
2019-03-12T08:31:37.980Z,2.50
2019-03-12T08:34:16.925Z,2.60
2019-03-12T08:37:01.614Z,3.30
2019-03-12T08:39:34.530Z,2.63
2019-03-12T08:42:19.727Z,2.63
2019-03-12T08:45:11.179Z,2.73
2019-03-12T08:47:45.955Z,2.50
2019-03-12T08:50:34.598Z,3.10
2019-03-12T08:53:22.743Z,2.57
2019-03-12T08:55:53.859Z,2.70
2019-03-12T08:58:42.945Z,2.30
2019-03-12T09:01:32.203Z,3.13
2019-03-12T09:04:10.834Z,2.67
2019-03-12T09:06:46.743Z,2.90
2019-03-12T09:09:22.565Z,2.67
2019-03-12T09:11:59.372Z,2.77
2019-03-12T09:14:30.441Z,2.77
2019-03-12T09:17:12.451Z,3.20
2019-03-12T09:19:58.321Z,2.73
2019-03-12T09:22:34.306Z,2.72
2019-03-12T09:25:11.877Z,2.60
2019-03-12T09:28:09.366Z,3.15
2019-03-12T09:30:51.269Z,4.10
2019-03-12T09:33:24.262Z,3.40
2019-03-12T09:35:58.108Z,3.40
2019-03-12T09:38:33.594Z,3.03
2019-03-12T09:41:15.800Z,3.10
2019-03-12T09:43:48.716Z,3.02
2019-03-12T09:46:27.675Z,2.87
2019-03-12T09:49:16.863Z,2.42
2019-03-12T09:51:52.406Z,2.70
2019-03-12T09:54:41.352Z,2.87
2019-03-12T09:57:16.945Z,2.87
2019-03-12T10:00:15.444Z,3.60
2019-03-12T10:02:40.986Z,3.02
2019-03-12T10:05:30.017Z,2.62
2019-03-12T10:08:08.895Z,3.08
2019-03-12T10:10:48.959Z,2.95
2019-03-12T10:13:37.717Z,3.00
2019-03-12T10:16:17.629Z,3.07
2019-03-12T10:18:50.495Z,2.60
2019-03-12T10:21:39.711Z,2.70
2019-03-12T10:24:29.054Z,2.95
2019-03-12T10:27:17.403Z,2.55
2019-03-12T10:30:05.148Z,2.47
2019-03-12T10:32:50.479Z,2.87
2019-03-12T10:35:23.364Z,2.83
2019-03-12T10:37:56.269Z,3.37
2019-03-12T10:40:31.963Z,2.72
2019-03-12T10:43:05.242Z,3.37
2019-03-12T10:45:41.077Z,3.22
2019-03-12T10:48:14.140Z,2.90
2019-03-12T10:50:45.594Z,2.77
2019-03-12T10:53:18.000Z,2.77
2019-03-12T10:55:49.360Z,3.40
2019-03-12T10:58:20.745Z,2.92
2019-03-12T11:00:52.044Z,3.40
2019-03-12T11:03:23.325Z,2.83
2019-03-12T11:05:54.621Z,2.95
2019-03-12T11:08:25.967Z,3.52
2019-03-12T11:10:57.395Z,2.90
2019-03-12T11:13:28.763Z,2.95
2019-03-12T11:16:00.071Z,2.17
2019-03-12T11:18:31.343Z,2.70
2019-03-12T11:21:02.635Z,3.05
2019-03-12T11:23:34.057Z,2.67
2019-03-12T11:26:05.494Z,2.80
2019-03-12T11:28:36.842Z,2.87
2019-03-12T11:31:08.160Z,2.70
2019-03-12T11:33:39.440Z,2.75
2019-03-12T11:36:10.689Z,2.80
2019-03-12T11:38:42.109Z,2.80
2019-03-12T11:41:13.474Z,2.98
2019-03-12T11:43:44.862Z,2.42
2019-03-12T11:46:16.159Z,2.70
2019-03-12T11:48:46.227Z,2.22
2019-03-12T11:51:17.627Z,2.75
2019-03-12T11:53:48.853Z,2.15
2019-03-12T11:56:20.087Z,2.62
2019-03-12T11:58:51.384Z,2.45
2019-03-12T12:01:22.601Z,2.62
2019-03-12T12:03:54.038Z,2.90
2019-03-12T12:06:25.377Z,2.47
2019-03-12T12:08:56.604Z,3.08
2019-03-12T12:11:27.878Z,2.62
2019-03-12T12:13:59.174Z,2.35
2019-03-12T12:16:31.076Z,2.47
2019-03-12T12:19:02.553Z,2.17
2019-03-12T12:21:33.832Z,2.20
2019-03-12T12:24:05.132Z,2.47
2019-03-12T12:26:36.426Z,2.40
2019-03-12T12:29:07.692Z,2.52
2019-03-12T12:31:38.917Z,2.95
2019-03-12T12:34:10.136Z,2.30
2019-03-12T12:36:41.614Z,2.25
2019-03-12T12:39:12.837Z,2.67
2019-03-12T12:41:44.290Z,2.17
2019-03-12T12:44:15.520Z,2.40
2019-03-12T12:46:47.952Z,1.90
2019-03-12T12:49:19.989Z,2.27
2019-03-12T12:51:51.286Z,2.08
2019-03-12T12:54:22.671Z,2.10
2019-03-12T12:56:54.894Z,2.10
2019-03-12T12:59:26.401Z,2.10
2019-03-12T13:01:57.774Z,1.87
2019-03-12T13:04:29.019Z,1.90
2019-03-12T13:07:00.554Z,2.02
2019-03-12T13:09:31.926Z,1.90
2019-03-12T13:12:03.165Z,1.87
2019-03-12T13:14:41.459Z,2.20
2019-03-12T13:17:07.530Z,2.10
2019-03-12T13:19:40.921Z,2.00
2019-03-12T13:22:12.207Z,2.47
2019-03-12T13:24:43.512Z,1.80
2019-03-12T13:27:14.880Z,2.15
2019-03-12T13:29:46.311Z,2.10
2019-03-12T13:32:17.592Z,1.72
2019-03-12T13:34:49.002Z,2.12
2019-03-12T13:37:20.244Z,1.80
2019-03-12T13:39:51.541Z,2.10
2019-03-12T13:42:22.930Z,1.47
2019-03-12T13:44:54.554Z,1.65
2019-03-12T13:47:28.780Z,1.75
2019-03-12T13:50:02.015Z,1.90
2019-03-12T13:52:33.606Z,1.65
2019-03-12T13:55:08.334Z,1.82
2019-03-12T13:57:39.783Z,2.02
2019-03-12T14:00:27.971Z,4.53
2019-03-12T14:02:59.272Z,1.77
2019-03-12T14:05:30.728Z,1.90
2019-03-12T14:08:02.172Z,2.00
2019-03-12T14:10:38.948Z,1.75
2019-03-12T14:13:11.495Z,1.90
2019-03-12T14:15:43.337Z,1.90
2019-03-12T14:18:15.336Z,1.72
2019-03-12T14:21:02.888Z,2.00
2019-03-12T14:23:41.592Z,1.85
2019-03-12T14:26:14.413Z,1.90
2019-03-12T14:28:45.786Z,2.00
2019-03-12T14:31:17.250Z,2.10
2019-03-12T14:33:48.746Z,2.17
2019-03-12T14:36:26.178Z,1.57
2019-03-12T14:38:58.462Z,1.67
2019-03-12T14:41:29.884Z,1.57
2019-03-12T14:44:01.354Z,1.85
2019-03-12T14:46:32.805Z,1.70
2019-03-12T14:49:04.356Z,1.42
2019-03-12T14:51:34.671Z,1.47
2019-03-12T14:54:11.987Z,1.75
2019-03-12T14:56:43.425Z,1.55
2019-03-12T14:59:15.685Z,1.40
2019-03-12T15:01:47.171Z,1.40
2019-03-12T15:04:18.580Z,1.70
2019-03-12T15:06:49.862Z,1.40
2019-03-12T15:09:24.192Z,1.20
2019-03-12T15:11:55.639Z,1.45
2019-03-12T15:14:26.902Z,1.62
2019-03-12T15:16:58.228Z,1.30
2019-03-12T15:19:29.473Z,1.55
2019-03-12T15:22:00.722Z,1.40
2019-03-12T15:24:32.023Z,1.50
2019-03-12T15:27:04.370Z,1.47
2019-03-12T15:29:35.684Z,1.50
2019-03-12T15:32:07.163Z,1.17
2019-03-12T15:34:38.475Z,1.25
2019-03-12T15:37:09.897Z,1.45
2019-03-12T15:39:41.132Z,1.67
2019-03-12T15:42:12.438Z,1.50
2019-03-12T15:44:43.822Z,1.40
2019-03-12T15:47:17.252Z,1.10
2019-03-12T15:49:48.556Z,1.12
2019-03-12T15:52:20.046Z,1.07
2019-03-12T15:54:51.373Z,1.20
2019-03-12T15:57:22.675Z,0.93
2019-03-12T15:59:54.018Z,1.00
2019-03-12T16:02:26.719Z,1.42
2019-03-12T16:04:58.027Z,1.22
2019-03-12T16:07:29.296Z,1.02
2019-03-12T16:10:01.469Z,1.15
2019-03-12T16:12:33.557Z,1.47
2019-03-12T16:15:07.148Z,1.42
2019-03-12T16:17:38.494Z,1.05
2019-03-12T16:20:20.323Z,1.30
2019-03-12T16:22:53.199Z,1.20
2019-03-12T16:25:25.563Z,1.20
2019-03-12T16:27:56.893Z,1.20
2019-03-12T16:30:28.303Z,1.22
2019-03-12T16:32:59.538Z,1.20
2019-03-12T16:35:30.979Z,1.40
2019-03-12T16:38:02.194Z,1.25
2019-03-12T16:40:33.535Z,1.32
2019-03-12T16:43:06.001Z,1.60
2019-03-12T16:45:37.372Z,1.35
2019-03-12T16:48:08.779Z,1.75
2019-03-12T16:50:41.331Z,1.15
2019-03-12T16:53:12.623Z,1.10
2019-03-12T16:55:43.893Z,1.55
2019-03-12T16:58:15.216Z,1.25
2019-03-12T17:00:46.494Z,1.25
2019-03-12T17:03:17.837Z,1.20
2019-03-12T17:05:49.121Z,1.98
2019-03-12T17:08:20.608Z,1.60
2019-03-12T17:11:00.815Z,1.62
2019-03-12T17:13:25.330Z,1.47
2019-03-12T17:15:57.687Z,1.60
2019-03-12T17:18:29.010Z,1.37
2019-03-12T17:21:00.402Z,1.70
2019-03-12T17:23:31.756Z,1.40
2019-03-12T17:26:03.144Z,1.60
2019-03-12T17:28:34.691Z,1.70
2019-03-12T17:31:06.048Z,1.40
2019-03-12T17:33:37.997Z,1.47
2019-03-12T17:36:09.282Z,1.55
2019-03-12T17:38:47.066Z,1.55
2019-03-12T17:41:15.126Z,1.50
2019-03-12T17:43:46.473Z,1.75
2019-03-12T17:46:17.911Z,1.75
2019-03-12T17:48:51.327Z,1.52
2019-03-12T17:51:22.760Z,2.15
2019-03-12T17:53:54.211Z,1.80
2019-03-12T17:56:26.284Z,1.75
2019-03-12T17:58:57.608Z,1.70
2019-03-12T18:01:30.178Z,1.70
2019-03-12T18:04:01.841Z,1.65
2019-03-12T18:06:35.233Z,1.55
2019-03-12T18:09:08.876Z,1.60
2019-03-12T18:11:40.804Z,1.50
2019-03-12T18:14:12.143Z,1.60
2019-03-12T18:16:43.357Z,1.47
2019-03-12T18:19:14.742Z,1.75
2019-03-12T18:21:45.965Z,1.47
2019-03-12T18:24:18.505Z,1.75
2019-03-12T18:26:49.727Z,1.42
2019-03-12T18:29:21.051Z,2.02
2019-03-12T18:31:52.264Z,1.55
2019-03-12T18:34:23.582Z,1.60
2019-03-12T18:36:54.883Z,1.70
2019-03-12T18:39:30.862Z,2.05
2019-03-12T18:42:02.086Z,1.80
2019-03-12T18:44:33.442Z,2.17
2019-03-12T18:47:04.849Z,1.90
2019-03-12T18:49:36.190Z,1.72
2019-03-12T18:52:07.472Z,1.82
2019-03-12T18:54:38.823Z,1.92
2019-03-12T18:57:10.144Z,1.77
2019-03-12T18:59:42.662Z,1.80
2019-03-12T19:02:17.617Z,1.42
2019-03-12T19:04:50.960Z,1.80
2019-03-12T19:07:24.893Z,1.70
2019-03-12T19:09:56.420Z,1.98
2019-03-12T19:12:27.878Z,1.82
2019-03-12T19:14:59.340Z,2.42
2019-03-12T19:17:30.706Z,2.02
2019-03-12T19:20:02.057Z,2.05
2019-03-12T19:22:33.637Z,2.00
2019-03-12T19:25:08.362Z,1.90
2019-03-12T19:27:39.660Z,2.20
2019-03-12T19:30:19.096Z,2.37
2019-03-12T19:33:10.439Z,2.27
2019-03-12T19:35:43.289Z,2.15
2019-03-12T19:38:15.789Z,2.22
2019-03-12T19:40:56.030Z,1.98
2019-03-12T19:43:28.946Z,1.90
2019-03-12T19:46:00.675Z,1.98
2019-03-12T19:48:32.210Z,2.27
2019-03-12T19:51:07.003Z,2.30
2019-03-12T19:53:38.690Z,2.25
2019-03-12T19:56:11.313Z,2.17
2019-03-12T19:58:43.262Z,2.25
2019-03-12T20:01:15.105Z,1.90
2019-03-12T20:03:47.008Z,2.05
2019-03-12T20:06:19.247Z,1.85
2019-03-12T20:08:51.722Z,2.02
2019-03-12T20:14:20.896Z,2.30
2019-03-12T20:17:32.033Z,2.08
2019-03-12T20:20:40.453Z,1.80
2019-03-12T20:23:45.850Z,1.72
2019-03-12T20:26:52.539Z,2.00
2019-03-12T20:29:54.648Z,2.02
2019-03-12T20:33:05.465Z,1.85
2019-03-12T20:36:04.354Z,2.27
2019-03-12T20:39:31.179Z,1.70
2019-03-12T20:42:45.142Z,2.05
2019-03-12T20:46:13.393Z,2.10
2019-03-12T20:49:21.233Z,2.00
2019-03-12T20:52:16.582Z,1.80
2019-03-12T20:55:01.566Z,1.50
2019-03-12T20:58:21.702Z,2.10
2019-03-12T21:01:20.219Z,1.75
2019-03-12T21:04:11.810Z,1.90
2019-03-12T21:07:41.261Z,1.70
2019-03-12T21:10:52.384Z,1.90
2019-03-12T21:14:00.555Z,1.75
2019-03-12T21:16:36.739Z,1.87
2019-03-12T21:19:41.268Z,1.52
2019-03-12T21:22:53.693Z,1.72
2019-03-12T21:25:52.094Z,1.60
2019-03-12T21:28:42.868Z,1.60
2019-03-12T21:31:15.212Z,1.57
2019-03-12T21:33:47.850Z,1.50
2019-03-12T21:36:19.332Z,1.47
2019-03-12T21:38:50.697Z,1.90
2019-03-12T21:41:22.059Z,1.67
2019-03-12T21:43:53.409Z,1.32
2019-03-12T21:46:24.698Z,1.55
2019-03-12T21:48:55.991Z,1.70
2019-03-12T21:51:27.475Z,1.50
2019-03-12T21:53:58.775Z,1.50
2019-03-12T21:56:30.105Z,1.52
2019-03-12T21:59:01.392Z,1.62
2019-03-12T22:01:32.745Z,1.82
2019-03-12T22:04:04.216Z,1.52
2019-03-12T22:06:35.788Z,1.60
2019-03-12T22:09:07.415Z,1.50
2019-03-12T22:11:40.469Z,1.65
2019-03-12T22:14:11.951Z,1.47
2019-03-12T22:16:44.205Z,1.87
2019-03-12T22:19:15.820Z,1.15
2019-03-12T22:21:48.730Z,1.35
2019-03-12T22:24:21.192Z,1.62
2019-03-12T22:26:52.565Z,1.27
2019-03-12T22:29:23.822Z,1.27
2019-03-12T22:31:55.176Z,1.42
2019-03-12T22:34:26.412Z,1.80
2019-03-12T22:36:58.871Z,1.45
2019-03-12T22:39:30.191Z,1.42
2019-03-12T22:42:01.452Z,1.42
2019-03-12T22:44:32.690Z,1.55
2019-03-12T22:47:03.976Z,1.25
2019-03-12T22:49:35.302Z,1.70
2019-03-12T22:52:07.534Z,1.57
2019-03-12T22:54:38.831Z,1.75
2019-03-12T22:57:10.126Z,1.45
2019-03-12T22:59:59.240Z,1.50
2019-03-12T23:02:48.198Z,1.50
2019-03-12T23:05:37.298Z,1.50
2019-03-12T23:08:26.515Z,1.00
2019-03-12T23:10:59.353Z,1.00
2019-03-12T23:13:31.503Z,0.95
2019-03-12T23:16:04.159Z,0.90
2019-03-12T23:18:36.008Z,0.70
2019-03-12T23:21:07.651Z,0.90
2019-03-12T23:23:39.350Z,0.75
2019-03-12T23:26:11.806Z,0.80
2019-03-12T23:28:43.213Z,0.60
2019-03-12T23:31:14.814Z,0.90
2019-03-12T23:33:49.633Z,0.62
2019-03-12T23:36:20.985Z,0.80
2019-03-12T23:38:52.426Z,0.62
2019-03-12T23:41:23.784Z,0.50
2019-03-12T23:44:00.742Z,0.50
2019-03-12T23:46:32.319Z,0.60
2019-03-12T23:49:03.671Z,0.70
2019-03-12T23:51:35.094Z,0.50
2019-03-12T23:54:06.430Z,0.60
2019-03-12T23:56:37.728Z,0.50
2019-03-12T23:59:09.128Z,0.60
